sensor_id;sensor_type;location;lat;lon;timestamp;temperature;humidity
16881;DHT22;8557;52.068;5.198;2022-09-03T00:00:40;17.90;1.00
16881;DHT22;8557;52.068;5.198;2022-09-03T00:03:18;17.90;1.00
16881;DHT22;8557;52.068;5.198;2022-09-03T00:05:50;17.90;1.00
16881;DHT22;8557;52.068;5.198;2022-09-03T00:08:24;17.90;1.00
16881;DHT22;8557;52.068;5.198;2022-09-03T00:10:58;17.90;1.00
16881;DHT22;8557;52.068;5.198;2022-09-03T00:13:31;17.80;1.00
16881;DHT22;8557;52.068;5.198;2022-09-03T00:16:02;17.80;1.00
16881;DHT22;8557;52.068;5.198;2022-09-03T00:18:41;17.80;1.00
16881;DHT22;8557;52.068;5.198;2022-09-03T00:21:11;17.80;1.00
16881;DHT22;8557;52.068;5.198;2022-09-03T00:23:41;17.80;1.00
16881;DHT22;8557;52.068;5.198;2022-09-03T00:26:18;17.70;1.00
16881;DHT22;8557;52.068;5.198;2022-09-03T00:28:53;17.70;1.00
16881;DHT22;8557;52.068;5.198;2022-09-03T00:31:28;17.60;37.10
16881;DHT22;8557;52.068;5.198;2022-09-03T00:34:01;17.60;85.90
16881;DHT22;8557;52.068;5.198;2022-09-03T00:36:34;17.60;99.90
16881;DHT22;8557;52.068;5.198;2022-09-03T00:39:01;17.60;99.90
16881;DHT22;8557;52.068;5.198;2022-09-03T00:41:33;17.50;99.90
16881;DHT22;8557;52.068;5.198;2022-09-03T00:44:24;17.50;99.90
16881;DHT22;8557;52.068;5.198;2022-09-03T00:46:59;17.50;99.90
16881;DHT22;8557;52.068;5.198;2022-09-03T00:49:36;17.40;99.90
16881;DHT22;8557;52.068;5.198;2022-09-03T00:52:12;17.50;99.90
16881;DHT22;8557;52.068;5.198;2022-09-03T00:54:50;17.40;99.90
16881;DHT22;8557;52.068;5.198;2022-09-03T00:57:33;17.40;99.90
16881;DHT22;8557;52.068;5.198;2022-09-03T01:00:06;17.40;99.90
16881;DHT22;8557;52.068;5.198;2022-09-03T01:02:46;17.50;99.90
16881;DHT22;8557;52.068;5.198;2022-09-03T01:05:23;17.50;99.90
16881;DHT22;8557;52.068;5.198;2022-09-03T01:07:58;17.50;99.90
16881;DHT22;8557;52.068;5.198;2022-09-03T01:10:32;17.60;99.90
16881;DHT22;8557;52.068;5.198;2022-09-03T01:13:08;17.60;99.90
16881;DHT22;8557;52.068;5.198;2022-09-03T01:15:44;17.60;99.90
16881;DHT22;8557;52.068;5.198;2022-09-03T01:18:20;17.60;99.90
16881;DHT22;8557;52.068;5.198;2022-09-03T01:20:57;17.70;99.90
16881;DHT22;8557;52.068;5.198;2022-09-03T01:23:42;17.60;99.90
16881;DHT22;8557;52.068;5.198;2022-09-03T01:26:27;17.60;99.90
16881;DHT22;8557;52.068;5.198;2022-09-03T01:29:03;17.70;99.90
16881;DHT22;8557;52.068;5.198;2022-09-03T01:31:41;17.70;99.90
16881;DHT22;8557;52.068;5.198;2022-09-03T01:34:16;17.70;99.90
16881;DHT22;8557;52.068;5.198;2022-09-03T01:36:54;17.70;99.90
16881;DHT22;8557;52.068;5.198;2022-09-03T01:39:28;17.80;99.90
16881;DHT22;8557;52.068;5.198;2022-09-03T01:42:07;17.70;99.90
16881;DHT22;8557;52.068;5.198;2022-09-03T01:44:51;17.80;99.90
16881;DHT22;8557;52.068;5.198;2022-09-03T01:47:34;17.80;99.90
16881;DHT22;8557;52.068;5.198;2022-09-03T01:50:07;17.80;99.90
16881;DHT22;8557;52.068;5.198;2022-09-03T01:52:42;17.80;99.90
16881;DHT22;8557;52.068;5.198;2022-09-03T01:55:21;17.80;99.90
16881;DHT22;8557;52.068;5.198;2022-09-03T01:57:56;17.90;99.90
16881;DHT22;8557;52.068;5.198;2022-09-03T02:00:26;17.80;99.90
16881;DHT22;8557;52.068;5.198;2022-09-03T02:02:54;17.70;99.90
16881;DHT22;8557;52.068;5.198;2022-09-03T02:05:23;17.70;99.90
16881;DHT22;8557;52.068;5.198;2022-09-03T02:07:55;17.60;99.90
16881;DHT22;8557;52.068;5.198;2022-09-03T02:10:27;17.60;99.90
16881;DHT22;8557;52.068;5.198;2022-09-03T02:12:59;17.50;99.90
16881;DHT22;8557;52.068;5.198;2022-09-03T02:15:29;17.50;99.90
16881;DHT22;8557;52.068;5.198;2022-09-03T02:18:01;17.40;99.90
16881;DHT22;8557;52.068;5.198;2022-09-03T02:20:30;17.30;1.00
16881;DHT22;8557;52.068;5.198;2022-09-03T02:22:57;17.20;1.00
16881;DHT22;8557;52.068;5.198;2022-09-03T02:25:29;17.20;1.00
16881;DHT22;8557;52.068;5.198;2022-09-03T02:27:59;17.20;1.00
16881;DHT22;8557;52.068;5.198;2022-09-03T02:30:26;17.10;1.00
16881;DHT22;8557;52.068;5.198;2022-09-03T02:32:54;17.10;1.00
16881;DHT22;8557;52.068;5.198;2022-09-03T02:35:21;17.10;1.00
16881;DHT22;8557;52.068;5.198;2022-09-03T02:37:48;17.10;1.00
16881;DHT22;8557;52.068;5.198;2022-09-03T02:40:15;17.00;1.00
16881;DHT22;8557;52.068;5.198;2022-09-03T02:42:42;16.90;1.00
16881;DHT22;8557;52.068;5.198;2022-09-03T02:45:19;16.90;1.00
16881;DHT22;8557;52.068;5.198;2022-09-03T02:47:50;16.80;1.00
16881;DHT22;8557;52.068;5.198;2022-09-03T02:50:19;16.80;1.00
16881;DHT22;8557;52.068;5.198;2022-09-03T02:52:46;16.80;1.00
16881;DHT22;8557;52.068;5.198;2022-09-03T02:55:13;16.80;1.00
16881;DHT22;8557;52.068;5.198;2022-09-03T02:57:40;16.80;1.00
16881;DHT22;8557;52.068;5.198;2022-09-03T03:00:08;16.70;1.00
16881;DHT22;8557;52.068;5.198;2022-09-03T03:02:35;16.70;1.00
16881;DHT22;8557;52.068;5.198;2022-09-03T03:05:03;16.70;1.00
16881;DHT22;8557;52.068;5.198;2022-09-03T03:07:35;16.70;1.00
16881;DHT22;8557;52.068;5.198;2022-09-03T03:10:03;16.50;1.00
16881;DHT22;8557;52.068;5.198;2022-09-03T03:12:30;16.60;1.00
16881;DHT22;8557;52.068;5.198;2022-09-03T03:14:57;16.60;1.00
16881;DHT22;8557;52.068;5.198;2022-09-03T03:17:23;16.60;1.00
16881;DHT22;8557;52.068;5.198;2022-09-03T03:19:50;16.50;1.00
16881;DHT22;8557;52.068;5.198;2022-09-03T03:22:17;16.50;1.00
16881;DHT22;8557;52.068;5.198;2022-09-03T03:24:45;16.50;1.00
16881;DHT22;8557;52.068;5.198;2022-09-03T03:27:14;16.50;1.00
16881;DHT22;8557;52.068;5.198;2022-09-03T03:29:41;16.50;1.00
16881;DHT22;8557;52.068;5.198;2022-09-03T03:32:08;16.50;1.00
16881;DHT22;8557;52.068;5.198;2022-09-03T03:34:35;16.50;1.00
16881;DHT22;8557;52.068;5.198;2022-09-03T03:37:02;16.50;1.00
16881;DHT22;8557;52.068;5.198;2022-09-03T03:39:28;16.40;1.00
16881;DHT22;8557;52.068;5.198;2022-09-03T03:41:57;16.40;1.00
16881;DHT22;8557;52.068;5.198;2022-09-03T03:44:23;16.30;1.00
16881;DHT22;8557;52.068;5.198;2022-09-03T03:46:50;16.30;1.00
16881;DHT22;8557;52.068;5.198;2022-09-03T03:49:17;16.30;1.00
16881;DHT22;8557;52.068;5.198;2022-09-03T03:51:44;16.20;1.00
16881;DHT22;8557;52.068;5.198;2022-09-03T03:54:11;16.30;1.00
16881;DHT22;8557;52.068;5.198;2022-09-03T03:56:38;16.20;1.00
16881;DHT22;8557;52.068;5.198;2022-09-03T03:59:06;16.20;1.00
16881;DHT22;8557;52.068;5.198;2022-09-03T04:01:32;16.20;1.00
16881;DHT22;8557;52.068;5.198;2022-09-03T04:03:59;16.20;1.00
16881;DHT22;8557;52.068;5.198;2022-09-03T04:06:27;16.10;1.00
16881;DHT22;8557;52.068;5.198;2022-09-03T04:08:54;16.10;1.00
16881;DHT22;8557;52.068;5.198;2022-09-03T04:11:23;16.10;1.00
16881;DHT22;8557;52.068;5.198;2022-09-03T04:13:51;16.00;1.00
16881;DHT22;8557;52.068;5.198;2022-09-03T04:16:21;16.10;1.00
16881;DHT22;8557;52.068;5.198;2022-09-03T04:18:48;16.00;1.00
16881;DHT22;8557;52.068;5.198;2022-09-03T04:21:17;16.00;1.00
16881;DHT22;8557;52.068;5.198;2022-09-03T04:23:45;16.00;1.00
16881;DHT22;8557;52.068;5.198;2022-09-03T04:26:15;16.00;1.00
16881;DHT22;8557;52.068;5.198;2022-09-03T04:28:42;16.00;1.00
16881;DHT22;8557;52.068;5.198;2022-09-03T04:31:11;16.10;1.00
16881;DHT22;8557;52.068;5.198;2022-09-03T04:33:40;16.10;1.00
16881;DHT22;8557;52.068;5.198;2022-09-03T04:36:08;16.10;1.00
16881;DHT22;8557;52.068;5.198;2022-09-03T04:38:36;16.10;1.00
16881;DHT22;8557;52.068;5.198;2022-09-03T04:41:03;16.00;1.00
16881;DHT22;8557;52.068;5.198;2022-09-03T04:43:31;16.10;1.00
16881;DHT22;8557;52.068;5.198;2022-09-03T04:45:58;16.10;1.00
16881;DHT22;8557;52.068;5.198;2022-09-03T04:48:25;16.10;1.00
16881;DHT22;8557;52.068;5.198;2022-09-03T04:50:54;16.10;1.00
16881;DHT22;8557;52.068;5.198;2022-09-03T04:53:30;16.10;1.00
16881;DHT22;8557;52.068;5.198;2022-09-03T04:55:57;16.10;1.00
16881;DHT22;8557;52.068;5.198;2022-09-03T04:58:24;16.10;1.00
16881;DHT22;8557;52.068;5.198;2022-09-03T05:00:50;16.00;1.00
16881;DHT22;8557;52.068;5.198;2022-09-03T05:03:17;16.00;1.00
16881;DHT22;8557;52.068;5.198;2022-09-03T05:05:51;16.00;1.00
16881;DHT22;8557;52.068;5.198;2022-09-03T05:08:19;15.90;1.00
16881;DHT22;8557;52.068;5.198;2022-09-03T05:10:46;15.90;1.00
16881;DHT22;8557;52.068;5.198;2022-09-03T05:13:13;15.90;1.00
16881;DHT22;8557;52.068;5.198;2022-09-03T05:15:40;15.90;1.00
16881;DHT22;8557;52.068;5.198;2022-09-03T05:18:10;15.90;1.00
16881;DHT22;8557;52.068;5.198;2022-09-03T05:20:37;15.90;1.00
16881;DHT22;8557;52.068;5.198;2022-09-03T05:23:04;15.90;1.00
16881;DHT22;8557;52.068;5.198;2022-09-03T05:25:33;15.90;1.00
16881;DHT22;8557;52.068;5.198;2022-09-03T05:28:00;15.90;1.00
16881;DHT22;8557;52.068;5.198;2022-09-03T05:30:27;15.90;1.00
16881;DHT22;8557;52.068;5.198;2022-09-03T05:32:55;15.90;1.00
16881;DHT22;8557;52.068;5.198;2022-09-03T05:35:21;16.00;1.00
16881;DHT22;8557;52.068;5.198;2022-09-03T05:37:48;15.90;1.00
16881;DHT22;8557;52.068;5.198;2022-09-03T05:40:15;16.00;1.00
16881;DHT22;8557;52.068;5.198;2022-09-03T05:42:43;16.00;1.00
16881;DHT22;8557;52.068;5.198;2022-09-03T05:45:10;16.00;1.00
16881;DHT22;8557;52.068;5.198;2022-09-03T05:47:37;16.00;1.00
16881;DHT22;8557;52.068;5.198;2022-09-03T05:50:06;16.10;1.00
16881;DHT22;8557;52.068;5.198;2022-09-03T05:52:35;16.10;1.00
16881;DHT22;8557;52.068;5.198;2022-09-03T05:55:02;16.20;1.00
16881;DHT22;8557;52.068;5.198;2022-09-03T05:57:29;16.20;1.00
16881;DHT22;8557;52.068;5.198;2022-09-03T05:59:57;16.30;1.00
16881;DHT22;8557;52.068;5.198;2022-09-03T06:02:25;16.30;1.00
16881;DHT22;8557;52.068;5.198;2022-09-03T06:04:52;16.20;1.00
16881;DHT22;8557;52.068;5.198;2022-09-03T06:07:19;16.20;1.00
16881;DHT22;8557;52.068;5.198;2022-09-03T06:09:46;16.40;1.00
16881;DHT22;8557;52.068;5.198;2022-09-03T06:12:13;16.50;1.00
16881;DHT22;8557;52.068;5.198;2022-09-03T06:14:40;16.60;1.00
16881;DHT22;8557;52.068;5.198;2022-09-03T06:17:08;16.70;1.00
16881;DHT22;8557;52.068;5.198;2022-09-03T06:19:37;16.80;1.00
16881;DHT22;8557;52.068;5.198;2022-09-03T06:22:03;16.90;1.00
16881;DHT22;8557;52.068;5.198;2022-09-03T06:24:30;17.00;1.00
16881;DHT22;8557;52.068;5.198;2022-09-03T06:26:57;17.10;1.00
16881;DHT22;8557;52.068;5.198;2022-09-03T06:29:24;17.20;1.00
16881;DHT22;8557;52.068;5.198;2022-09-03T06:31:52;17.20;1.00
16881;DHT22;8557;52.068;5.198;2022-09-03T06:34:20;17.30;1.00
16881;DHT22;8557;52.068;5.198;2022-09-03T06:36:50;17.40;1.00
16881;DHT22;8557;52.068;5.198;2022-09-03T06:39:17;17.50;1.00
16881;DHT22;8557;52.068;5.198;2022-09-03T06:41:43;17.50;1.00
16881;DHT22;8557;52.068;5.198;2022-09-03T06:44:16;17.60;1.00
16881;DHT22;8557;52.068;5.198;2022-09-03T06:46:43;17.70;1.00
16881;DHT22;8557;52.068;5.198;2022-09-03T06:49:11;17.80;1.00
16881;DHT22;8557;52.068;5.198;2022-09-03T06:51:40;17.90;1.00
16881;DHT22;8557;52.068;5.198;2022-09-03T06:54:09;18.00;1.00
16881;DHT22;8557;52.068;5.198;2022-09-03T06:56:38;18.10;1.00
16881;DHT22;8557;52.068;5.198;2022-09-03T06:59:06;18.20;1.00
16881;DHT22;8557;52.068;5.198;2022-09-03T07:01:34;18.30;1.00
16881;DHT22;8557;52.068;5.198;2022-09-03T07:04:04;18.40;1.00
16881;DHT22;8557;52.068;5.198;2022-09-03T07:06:33;18.50;1.00
16881;DHT22;8557;52.068;5.198;2022-09-03T07:09:03;18.60;1.00
16881;DHT22;8557;52.068;5.198;2022-09-03T07:11:30;18.60;1.00
16881;DHT22;8557;52.068;5.198;2022-09-03T07:13:58;18.70;1.00
16881;DHT22;8557;52.068;5.198;2022-09-03T07:16:26;18.80;1.00
16881;DHT22;8557;52.068;5.198;2022-09-03T07:18:54;19.00;1.00
16881;DHT22;8557;52.068;5.198;2022-09-03T07:21:22;19.10;1.00
16881;DHT22;8557;52.068;5.198;2022-09-03T07:23:50;19.20;1.00
16881;DHT22;8557;52.068;5.198;2022-09-03T07:26:20;19.30;1.00
16881;DHT22;8557;52.068;5.198;2022-09-03T07:28:48;19.40;1.00
16881;DHT22;8557;52.068;5.198;2022-09-03T07:31:16;19.50;1.00
16881;DHT22;8557;52.068;5.198;2022-09-03T07:33:44;19.60;1.00
16881;DHT22;8557;52.068;5.198;2022-09-03T07:36:12;19.70;99.90
16881;DHT22;8557;52.068;5.198;2022-09-03T07:38:40;19.70;99.90
16881;DHT22;8557;52.068;5.198;2022-09-03T07:41:09;19.80;99.90
16881;DHT22;8557;52.068;5.198;2022-09-03T07:43:40;19.90;99.90
16881;DHT22;8557;52.068;5.198;2022-09-03T07:46:08;19.90;99.90
16881;DHT22;8557;52.068;5.198;2022-09-03T07:48:37;20.00;99.90
16881;DHT22;8557;52.068;5.198;2022-09-03T07:51:04;20.10;99.90
16881;DHT22;8557;52.068;5.198;2022-09-03T07:53:32;20.10;99.90
16881;DHT22;8557;52.068;5.198;2022-09-03T07:56:04;20.10;99.90
16881;DHT22;8557;52.068;5.198;2022-09-03T07:58:32;20.10;99.90
16881;DHT22;8557;52.068;5.198;2022-09-03T08:01:05;20.20;99.90
16881;DHT22;8557;52.068;5.198;2022-09-03T08:03:32;20.20;99.90
16881;DHT22;8557;52.068;5.198;2022-09-03T08:06:00;20.20;99.90
16881;DHT22;8557;52.068;5.198;2022-09-03T08:08:28;20.30;99.90
16881;DHT22;8557;52.068;5.198;2022-09-03T08:10:55;20.40;99.90
16881;DHT22;8557;52.068;5.198;2022-09-03T08:13:28;20.50;99.90
16881;DHT22;8557;52.068;5.198;2022-09-03T08:15:55;20.60;99.90
16881;DHT22;8557;52.068;5.198;2022-09-03T08:18:25;20.60;99.90
16881;DHT22;8557;52.068;5.198;2022-09-03T08:21:02;20.70;99.90
16881;DHT22;8557;52.068;5.198;2022-09-03T08:23:28;20.90;99.90
16881;DHT22;8557;52.068;5.198;2022-09-03T08:25:57;20.90;99.90
16881;DHT22;8557;52.068;5.198;2022-09-03T08:28:24;21.00;99.90
16881;DHT22;8557;52.068;5.198;2022-09-03T08:30:51;21.00;59.80
16881;DHT22;8557;52.068;5.198;2022-09-03T08:33:18;21.10;44.50
16881;DHT22;8557;52.068;5.198;2022-09-03T08:36:03;21.20;52.60
16881;DHT22;8557;52.068;5.198;2022-09-03T08:38:31;21.30;25.20
16881;DHT22;8557;52.068;5.198;2022-09-03T08:41:06;21.40;1.00
16881;DHT22;8557;52.068;5.198;2022-09-03T08:43:43;21.50;1.00
16881;DHT22;8557;52.068;5.198;2022-09-03T08:46:14;21.50;1.00
16881;DHT22;8557;52.068;5.198;2022-09-03T08:48:41;21.50;1.00
16881;DHT22;8557;52.068;5.198;2022-09-03T08:51:11;21.60;1.00
16881;DHT22;8557;52.068;5.198;2022-09-03T08:53:44;21.70;1.00
16881;DHT22;8557;52.068;5.198;2022-09-03T08:56:13;21.70;1.00
16881;DHT22;8557;52.068;5.198;2022-09-03T08:58:44;21.80;1.00
16881;DHT22;8557;52.068;5.198;2022-09-03T09:01:15;21.90;1.00
16881;DHT22;8557;52.068;5.198;2022-09-03T09:03:51;22.00;1.00
16881;DHT22;8557;52.068;5.198;2022-09-03T09:06:27;22.10;1.00
16881;DHT22;8557;52.068;5.198;2022-09-03T09:09:05;22.10;1.00
16881;DHT22;8557;52.068;5.198;2022-09-03T09:11:45;22.20;1.00
16881;DHT22;8557;52.068;5.198;2022-09-03T09:14:18;22.30;1.00
16881;DHT22;8557;52.068;5.198;2022-09-03T09:16:57;22.40;1.00
16881;DHT22;8557;52.068;5.198;2022-09-03T09:19:38;22.50;1.00
16881;DHT22;8557;52.068;5.198;2022-09-03T09:22:10;22.70;1.00
16881;DHT22;8557;52.068;5.198;2022-09-03T09:24:43;22.80;1.00
16881;DHT22;8557;52.068;5.198;2022-09-03T09:27:13;23.00;1.00
16881;DHT22;8557;52.068;5.198;2022-09-03T09:29:45;23.10;1.00
16881;DHT22;8557;52.068;5.198;2022-09-03T09:32:15;23.10;1.00
16881;DHT22;8557;52.068;5.198;2022-09-03T09:34:44;23.20;1.00
16881;DHT22;8557;52.068;5.198;2022-09-03T09:37:14;23.30;1.00
16881;DHT22;8557;52.068;5.198;2022-09-03T09:39:53;23.50;1.00
16881;DHT22;8557;52.068;5.198;2022-09-03T09:42:21;23.50;1.00
16881;DHT22;8557;52.068;5.198;2022-09-03T09:44:48;23.60;99.90
16881;DHT22;8557;52.068;5.198;2022-09-03T09:47:21;23.70;1.00
16881;DHT22;8557;52.068;5.198;2022-09-03T09:49:51;23.80;1.00
16881;DHT22;8557;52.068;5.198;2022-09-03T09:52:21;23.80;99.90
16881;DHT22;8557;52.068;5.198;2022-09-03T09:54:50;23.90;99.90
16881;DHT22;8557;52.068;5.198;2022-09-03T09:57:21;23.90;99.90
16881;DHT22;8557;52.068;5.198;2022-09-03T09:59:48;24.10;99.90
16881;DHT22;8557;52.068;5.198;2022-09-03T10:02:22;24.20;99.90
16881;DHT22;8557;52.068;5.198;2022-09-03T10:04:51;24.20;99.90
16881;DHT22;8557;52.068;5.198;2022-09-03T10:07:25;24.40;99.90
16881;DHT22;8557;52.068;5.198;2022-09-03T10:09:59;24.60;99.90
16881;DHT22;8557;52.068;5.198;2022-09-03T10:12:30;24.60;99.90
16881;DHT22;8557;52.068;5.198;2022-09-03T10:15:06;24.80;99.90
16881;DHT22;8557;52.068;5.198;2022-09-03T10:17:41;24.80;99.90
16881;DHT22;8557;52.068;5.198;2022-09-03T10:20:11;24.90;99.90
16881;DHT22;8557;52.068;5.198;2022-09-03T10:23:01;25.00;99.90
16881;DHT22;8557;52.068;5.198;2022-09-03T10:25:35;25.10;91.50
16881;DHT22;8557;52.068;5.198;2022-09-03T10:28:06;25.20;24.30
16881;DHT22;8557;52.068;5.198;2022-09-03T10:33:36;25.40;1.00
16881;DHT22;8557;52.068;5.198;2022-09-03T10:36:10;25.50;1.00
16881;DHT22;8557;52.068;5.198;2022-09-03T10:38:42;25.70;1.00
16881;DHT22;8557;52.068;5.198;2022-09-03T10:41:21;25.80;1.00
16881;DHT22;8557;52.068;5.198;2022-09-03T10:46:55;25.80;99.90
16881;DHT22;8557;52.068;5.198;2022-09-03T10:49:35;26.00;99.90
16881;DHT22;8557;52.068;5.198;2022-09-03T10:52:09;26.00;99.90
16881;DHT22;8557;52.068;5.198;2022-09-03T10:54:49;26.10;99.90
16881;DHT22;8557;52.068;5.198;2022-09-03T10:57:26;26.20;99.90
16881;DHT22;8557;52.068;5.198;2022-09-03T11:00:03;26.30;99.90
16881;DHT22;8557;52.068;5.198;2022-09-03T11:03:01;26.30;94.20
16881;DHT22;8557;52.068;5.198;2022-09-03T11:05:37;26.20;1.00
16881;DHT22;8557;52.068;5.198;2022-09-03T11:08:10;26.30;1.00
16881;DHT22;8557;52.068;5.198;2022-09-03T11:10:41;26.40;1.00
16881;DHT22;8557;52.068;5.198;2022-09-03T11:13:12;26.50;1.00
16881;DHT22;8557;52.068;5.198;2022-09-03T11:15:44;26.50;1.00
16881;DHT22;8557;52.068;5.198;2022-09-03T11:18:19;26.60;1.00
16881;DHT22;8557;52.068;5.198;2022-09-03T11:20:50;26.70;1.00
16881;DHT22;8557;52.068;5.198;2022-09-03T11:23:20;26.70;1.00
16881;DHT22;8557;52.068;5.198;2022-09-03T11:25:51;26.70;1.00
16881;DHT22;8557;52.068;5.198;2022-09-03T11:28:29;26.80;1.00
16881;DHT22;8557;52.068;5.198;2022-09-03T11:31:12;26.80;1.00
16881;DHT22;8557;52.068;5.198;2022-09-03T11:33:46;27.00;1.00
16881;DHT22;8557;52.068;5.198;2022-09-03T11:36:23;27.20;1.00
16881;DHT22;8557;52.068;5.198;2022-09-03T11:38:52;27.30;1.00
16881;DHT22;8557;52.068;5.198;2022-09-03T11:41:25;27.30;99.90
16881;DHT22;8557;52.068;5.198;2022-09-03T11:43:53;27.30;99.90
16881;DHT22;8557;52.068;5.198;2022-09-03T11:46:28;27.30;99.90
16881;DHT22;8557;52.068;5.198;2022-09-03T11:49:07;27.30;99.90
16881;DHT22;8557;52.068;5.198;2022-09-03T11:51:36;27.30;99.90
16881;DHT22;8557;52.068;5.198;2022-09-03T11:57:11;27.40;99.90
16881;DHT22;8557;52.068;5.198;2022-09-03T11:59:41;27.40;99.90
16881;DHT22;8557;52.068;5.198;2022-09-03T12:02:23;27.50;99.90
16881;DHT22;8557;52.068;5.198;2022-09-03T12:05:02;27.60;99.90
16881;DHT22;8557;52.068;5.198;2022-09-03T12:07:41;27.70;93.80
16881;DHT22;8557;52.068;5.198;2022-09-03T12:10:24;27.80;60.10
16881;DHT22;8557;52.068;5.198;2022-09-03T12:13:11;28.00;99.90
16881;DHT22;8557;52.068;5.198;2022-09-03T12:15:53;28.10;99.90
16881;DHT22;8557;52.068;5.198;2022-09-03T12:18:25;28.30;1.00
16881;DHT22;8557;52.068;5.198;2022-09-03T12:21:03;28.20;1.00
16881;DHT22;8557;52.068;5.198;2022-09-03T12:23:32;28.40;1.00
16881;DHT22;8557;52.068;5.198;2022-09-03T12:26:02;28.60;1.00
16881;DHT22;8557;52.068;5.198;2022-09-03T12:28:34;28.70;1.00
16881;DHT22;8557;52.068;5.198;2022-09-03T12:31:06;28.80;1.00
16881;DHT22;8557;52.068;5.198;2022-09-03T12:33:47;29.00;1.00
16881;DHT22;8557;52.068;5.198;2022-09-03T12:36:14;29.30;1.00
16881;DHT22;8557;52.068;5.198;2022-09-03T12:38:41;29.50;1.00
16881;DHT22;8557;52.068;5.198;2022-09-03T12:41:23;30.20;1.00
16881;DHT22;8557;52.068;5.198;2022-09-03T12:43:53;31.10;1.00
16881;DHT22;8557;52.068;5.198;2022-09-03T12:46:25;31.90;99.90
16881;DHT22;8557;52.068;5.198;2022-09-03T12:48:57;32.60;99.90
16881;DHT22;8557;52.068;5.198;2022-09-03T12:51:31;33.50;99.90
16881;DHT22;8557;52.068;5.198;2022-09-03T12:53:59;34.10;93.30
16881;DHT22;8557;52.068;5.198;2022-09-03T12:56:26;34.60;1.00
16881;DHT22;8557;52.068;5.198;2022-09-03T12:59:01;35.20;1.00
16881;DHT22;8557;52.068;5.198;2022-09-03T13:01:33;35.40;1.00
16881;DHT22;8557;52.068;5.198;2022-09-03T13:04:04;35.80;1.00
16881;DHT22;8557;52.068;5.198;2022-09-03T13:06:43;36.50;1.00
16881;DHT22;8557;52.068;5.198;2022-09-03T13:09:14;36.90;1.00
16881;DHT22;8557;52.068;5.198;2022-09-03T13:11:41;37.70;99.90
16881;DHT22;8557;52.068;5.198;2022-09-03T13:14:11;38.60;99.90
16881;DHT22;8557;52.068;5.198;2022-09-03T13:17:04;39.40;99.90
16881;DHT22;8557;52.068;5.198;2022-09-03T13:19:41;39.80;99.90
16881;DHT22;8557;52.068;5.198;2022-09-03T13:22:17;39.80;99.90
16881;DHT22;8557;52.068;5.198;2022-09-03T13:25:07;40.40;99.90
16881;DHT22;8557;52.068;5.198;2022-09-03T13:27:43;40.30;19.00
16881;DHT22;8557;52.068;5.198;2022-09-03T13:30:14;40.80;16.20
16881;DHT22;8557;52.068;5.198;2022-09-03T13:32:52;41.80;1.00
16881;DHT22;8557;52.068;5.198;2022-09-03T13:35:27;42.50;1.00
16881;DHT22;8557;52.068;5.198;2022-09-03T13:37:57;43.40;1.00
16881;DHT22;8557;52.068;5.198;2022-09-03T13:40:33;42.70;1.00
16881;DHT22;8557;52.068;5.198;2022-09-03T13:43:09;43.90;1.00
16881;DHT22;8557;52.068;5.198;2022-09-03T13:45:47;44.20;1.00
16881;DHT22;8557;52.068;5.198;2022-09-03T13:48:19;45.00;1.00
16881;DHT22;8557;52.068;5.198;2022-09-03T13:51:10;45.50;1.00
16881;DHT22;8557;52.068;5.198;2022-09-03T13:53:48;45.60;1.00
16881;DHT22;8557;52.068;5.198;2022-09-03T13:56:22;47.00;1.00
16881;DHT22;8557;52.068;5.198;2022-09-03T13:58:57;47.50;1.00
16881;DHT22;8557;52.068;5.198;2022-09-03T14:01:45;48.20;1.00
16881;DHT22;8557;52.068;5.198;2022-09-03T14:04:20;49.00;1.00
16881;DHT22;8557;52.068;5.198;2022-09-03T14:06:53;48.70;1.00
16881;DHT22;8557;52.068;5.198;2022-09-03T14:09:28;49.60;1.00
16881;DHT22;8557;52.068;5.198;2022-09-03T14:12:02;50.20;1.00
16881;DHT22;8557;52.068;5.198;2022-09-03T14:14:39;48.60;1.00
16881;DHT22;8557;52.068;5.198;2022-09-03T14:17:13;49.70;1.00
16881;DHT22;8557;52.068;5.198;2022-09-03T14:19:47;50.80;1.00
16881;DHT22;8557;52.068;5.198;2022-09-03T14:22:17;51.50;1.00
16881;DHT22;8557;52.068;5.198;2022-09-03T14:24:50;51.90;1.00
16881;DHT22;8557;52.068;5.198;2022-09-03T14:27:24;52.30;1.00
16881;DHT22;8557;52.068;5.198;2022-09-03T14:29:54;51.60;1.00
16881;DHT22;8557;52.068;5.198;2022-09-03T14:32:31;52.00;1.00
16881;DHT22;8557;52.068;5.198;2022-09-03T14:35:13;50.00;1.00
16881;DHT22;8557;52.068;5.198;2022-09-03T14:40:47;52.00;1.00
16881;DHT22;8557;52.068;5.198;2022-09-03T14:43:27;53.00;1.00
16881;DHT22;8557;52.068;5.198;2022-09-03T14:46:12;51.50;1.00
16881;DHT22;8557;52.068;5.198;2022-09-03T14:49:09;51.60;1.00
16881;DHT22;8557;52.068;5.198;2022-09-03T14:51:51;52.40;1.00
16881;DHT22;8557;52.068;5.198;2022-09-03T14:54:44;53.30;1.00
16881;DHT22;8557;52.068;5.198;2022-09-03T15:00:18;52.30;1.00
16881;DHT22;8557;52.068;5.198;2022-09-03T15:03:15;49.80;1.00
16881;DHT22;8557;52.068;5.198;2022-09-03T15:05:52;50.60;1.00
16881;DHT22;8557;52.068;5.198;2022-09-03T15:08:42;49.60;1.00
16881;DHT22;8557;52.068;5.198;2022-09-03T15:11:15;49.60;1.00
16881;DHT22;8557;52.068;5.198;2022-09-03T15:13:46;50.20;1.00
16881;DHT22;8557;52.068;5.198;2022-09-03T15:16:27;51.50;1.00
16881;DHT22;8557;52.068;5.198;2022-09-03T15:19:09;52.50;1.00
16881;DHT22;8557;52.068;5.198;2022-09-03T15:21:53;52.50;1.00
16881;DHT22;8557;52.068;5.198;2022-09-03T15:24:31;51.70;1.00
16881;DHT22;8557;52.068;5.198;2022-09-03T15:27:09;52.50;1.00
16881;DHT22;8557;52.068;5.198;2022-09-03T15:29:47;52.40;1.00
16881;DHT22;8557;52.068;5.198;2022-09-03T15:32:21;49.70;1.00
16881;DHT22;8557;52.068;5.198;2022-09-03T15:35:07;50.30;1.00
16881;DHT22;8557;52.068;5.198;2022-09-03T15:37:42;50.30;1.00
16881;DHT22;8557;52.068;5.198;2022-09-03T15:40:24;50.10;1.00
16881;DHT22;8557;52.068;5.198;2022-09-03T15:42:57;51.40;1.00
16881;DHT22;8557;52.068;5.198;2022-09-03T15:45:33;48.90;1.00
16881;DHT22;8557;52.068;5.198;2022-09-03T15:48:08;46.50;1.00
16881;DHT22;8557;52.068;5.198;2022-09-03T15:50:50;42.20;99.90
16881;DHT22;8557;52.068;5.198;2022-09-03T15:53:28;39.70;99.90
16881;DHT22;8557;52.068;5.198;2022-09-03T15:56:08;38.80;99.90
16881;DHT22;8557;52.068;5.198;2022-09-03T15:58:41;40.20;99.90
16881;DHT22;8557;52.068;5.198;2022-09-03T16:01:20;40.70;99.90
16881;DHT22;8557;52.068;5.198;2022-09-03T16:03:57;39.40;99.90
16881;DHT22;8557;52.068;5.198;2022-09-03T16:06:30;37.50;99.90
16881;DHT22;8557;52.068;5.198;2022-09-03T16:09:07;35.90;99.90
16881;DHT22;8557;52.068;5.198;2022-09-03T16:11:40;35.10;46.30
16881;DHT22;8557;52.068;5.198;2022-09-03T16:14:14;34.30;28.40
16881;DHT22;8557;52.068;5.198;2022-09-03T16:16:55;33.40;1.00
16881;DHT22;8557;52.068;5.198;2022-09-03T16:19:26;32.70;1.00
16881;DHT22;8557;52.068;5.198;2022-09-03T16:21:57;32.00;1.00
16881;DHT22;8557;52.068;5.198;2022-09-03T16:24:32;31.20;1.00
16881;DHT22;8557;52.068;5.198;2022-09-03T16:27:08;30.80;1.00
16881;DHT22;8557;52.068;5.198;2022-09-03T16:29:36;30.40;1.00
16881;DHT22;8557;52.068;5.198;2022-09-03T16:32:19;30.20;1.00
16881;DHT22;8557;52.068;5.198;2022-09-03T16:35:01;29.80;1.00
16881;DHT22;8557;52.068;5.198;2022-09-03T16:37:34;29.50;1.00
16881;DHT22;8557;52.068;5.198;2022-09-03T16:40:13;29.30;1.00
16881;DHT22;8557;52.068;5.198;2022-09-03T16:42:44;29.20;1.00
16881;DHT22;8557;52.068;5.198;2022-09-03T16:45:22;29.00;1.00